Time;durP1;ratioP1;P1;durP2;ratioP2;P2;SDS_P1;SDS_P2;PMS_P1;PMS_P2;Temp;Humidity;BMP_temperature;BMP_pressure;BME280_temperature;BME280_humidity;BME280_pressure;Samples;Min_cycle;Max_cycle;Signal;HPM_P1;HPM_P2
2023/01/14 00:00:27;;;;;;;28.90;6.63;;;;;;;5.06;100.00;101340.78;5242174;28;20036;-73
2023/01/14 00:02:58;;;;;;;19.00;6.83;;;;;;;5.04;100.00;101343.34;5225738;28;20036;-73
2023/01/14 00:05:30;;;;;;;23.70;6.37;;;;;;;5.01;100.00;101340.69;5242987;28;20112;-74
2023/01/14 00:08:01;;;;;;;24.80;6.90;;;;;;;5.03;100.00;101351.06;5225506;28;20025;-75
2023/01/14 00:10:33;;;;;;;25.90;6.50;;;;;;;4.99;100.00;101352.72;5241979;28;20116;-74
2023/01/14 00:13:04;;;;;;;26.10;6.00;;;;;;;4.98;100.00;101356.13;5241820;28;20029;-74
2023/01/14 00:15:35;;;;;;;27.73;8.90;;;;;;;5.07;100.00;101355.44;5241726;28;20050;-74
2023/01/14 00:18:07;;;;;;;27.60;6.10;;;;;;;5.07;100.00;101361.50;5242886;28;20112;-75
2023/01/14 00:20:38;;;;;;;24.50;7.70;;;;;;;5.00;100.00;101353.59;5243081;28;20160;-74
2023/01/14 00:23:10;;;;;;;26.53;5.20;;;;;;;4.99;100.00;101354.41;5242085;28;20078;-76
2023/01/14 00:25:41;;;;;;;26.77;7.33;;;;;;;4.99;100.00;101357.91;5242663;28;20033;-74
2023/01/14 00:28:12;;;;;;;21.50;5.97;;;;;;;4.98;100.00;101347.53;5242650;28;20044;-75
2023/01/14 00:30:44;;;;;;;23.47;6.67;;;;;;;4.92;100.00;101345.69;5241526;28;20040;-75
2023/01/14 00:33:16;;;;;;;27.50;6.00;;;;;;;5.01;100.00;101342.41;5242508;28;20029;-75
2023/01/14 00:35:54;;;;;;;19.80;6.22;;;;;;;4.96;100.00;101342.34;5241512;28;20048;-74
2023/01/14 00:38:26;;;;;;;29.10;6.10;;;;;;;4.92;100.00;101341.38;5225337;28;20392;-74
2023/01/14 00:41:12;;;;;;;26.80;7.32;;;;;;;4.95;100.00;101338.00;5242608;28;20046;-74
2023/01/14 00:43:46;;;;;;;21.90;6.53;;;;;;;4.93;100.00;101348.28;5242382;28;20032;-74
2023/01/14 00:46:20;;;;;;;28.00;6.95;;;;;;;4.91;100.00;101347.41;5242578;28;20528;-74
2023/01/14 00:48:53;;;;;;;34.65;8.30;;;;;;;4.92;100.00;101356.00;5242492;28;20029;-74
2023/01/14 00:51:25;;;;;;;26.70;6.55;;;;;;;4.96;100.00;101351.78;5242982;28;20030;-74
2023/01/14 00:53:56;;;;;;;30.85;6.68;;;;;;;4.91;100.00;101356.84;5241175;28;20037;-74
2023/01/14 00:56:28;;;;;;;29.50;8.23;;;;;;;4.92;100.00;101356.88;5240906;28;20045;-74
2023/01/14 00:58:59;;;;;;;35.70;7.93;;;;;;;4.89;100.00;101346.50;5241417;28;20033;-74
2023/01/14 01:01:31;;;;;;;37.73;7.83;;;;;;;4.92;100.00;101346.53;5224630;28;20065;-74
2023/01/14 01:04:02;;;;;;;36.07;7.73;;;;;;;4.89;100.00;101362.00;5240903;28;20034;-74
2023/01/14 01:06:34;;;;;;;37.87;7.87;;;;;;;4.87;100.00;101353.34;5225298;28;20462;-74
2023/01/14 01:09:05;;;;;;;27.77;7.00;;;;;;;4.85;100.00;101360.19;5224484;28;20126;-75
2023/01/14 01:11:37;;;;;;;39.60;9.03;;;;;;;4.86;100.00;101358.47;5242345;28;20033;-75
2023/01/14 01:14:09;;;;;;;40.47;9.97;;;;;;;4.90;100.00;101357.72;5240839;28;20389;-75
2023/01/14 01:16:42;;;;;;;33.47;7.63;;;;;;;4.86;100.00;101356.78;5240225;28;20053;-75
2023/01/14 01:19:13;;;;;;;;;;;;;;;4.80;100.00;101360.94;5241144;28;20033;-75
2023/01/14 01:21:44;;;;;;;33.30;8.80;;;;;;;4.69;100.00;101361.59;5242060;28;20384;-74
2023/01/14 01:24:16;;;;;;;35.93;7.97;;;;;;;4.71;100.00;101357.31;5242327;28;20037;-73
2023/01/14 01:26:48;;;;;;;28.53;8.93;;;;;;;4.70;100.00;101354.72;5240659;28;20073;-74
2023/01/14 01:29:19;;;;;;;32.75;7.68;;;;;;;4.66;100.00;101358.94;5224284;28;20037;-74
2023/01/14 01:31:51;;;;;;;36.30;10.00;;;;;;;4.71;100.00;101364.22;5224949;28;20034;-74
2023/01/14 01:34:22;;;;;;;35.60;8.00;;;;;;;4.66;100.00;101358.94;5239961;28;20125;-74
2023/01/14 01:36:55;;;;;;;32.00;9.60;;;;;;;4.65;100.00;101349.44;5241884;28;20029;-75
2023/01/14 01:39:26;;;;;;;;;;;;;;;4.67;100.00;101352.94;5240893;28;20030;-74
2023/01/14 01:41:57;;;;;;;34.72;7.38;;;;;;;4.57;100.00;101349.31;5241828;28;20007;-74
2023/01/14 01:44:29;;;;;;;42.00;8.20;;;;;;;4.54;100.00;101356.09;5241762;28;20026;-74
2023/01/14 01:47:00;;;;;;;32.80;6.90;;;;;;;4.57;100.00;101353.59;5241742;28;20021;-75
2023/01/14 01:49:35;;;;;;;42.33;9.47;;;;;;;4.62;100.00;101352.00;5240921;28;20025;-74
2023/01/14 01:52:24;;;;;;;39.60;8.63;;;;;;;4.62;100.00;101362.31;5223677;28;20053;-74
2023/01/14 01:55:06;;;;;;;32.42;8.00;;;;;;;4.61;100.00;101351.97;5241295;28;20044;-74
2023/01/14 01:57:38;;;;;;;31.58;7.15;;;;;;;4.66;100.00;101358.94;5240440;28;20420;-75
2023/01/14 02:00:10;;;;;;;32.50;6.87;;;;;;;4.66;100.00;101358.09;5224416;28;20033;-74
2023/01/14 02:02:42;;;;;;;34.40;7.55;;;;;;;4.56;100.00;101344.13;5241315;28;20362;-74
2023/01/14 02:05:13;;;;;;;31.93;8.73;;;;;;;4.51;100.00;101346.59;5241168;28;20485;-74
2023/01/14 02:07:45;;;;;;;40.63;8.00;;;;;;;4.46;100.00;101337.00;5240126;28;20038;-74
2023/01/14 02:10:18;;;;;;;41.17;8.97;;;;;;;4.42;100.00;101335.22;5241461;28;20124;-74
2023/01/14 02:13:15;;;;;;;38.20;7.45;;;;;;;4.35;100.00;101327.31;5240238;28;20411;-76
2023/01/14 02:15:55;;;;;;;40.20;7.97;;;;;;;4.33;100.00;101321.25;5239574;28;20051;-74
2023/01/14 02:18:35;;;;;;;42.53;11.52;;;;;;;4.31;100.00;101317.75;5241422;28;20156;-74
2023/01/14 02:21:33;;;;;;;43.00;10.00;;;;;;;4.31;100.00;101315.19;5241123;28;20076;-74
2023/01/14 02:24:56;;;;;;;36.63;9.05;;;;;;;4.31;100.00;101297.13;5240617;28;20041;-74
2023/01/14 02:27:37;;;;;;;42.38;9.45;;;;;;;4.30;100.00;101292.81;5232798;28;20042;-74
2023/01/14 02:30:24;;;;;;;45.95;9.40;;;;;;;4.24;100.00;101276.34;5245746;28;20061;-74
2023/01/14 02:33:24;;;;;;;40.42;7.68;;;;;;;4.25;100.00;101272.88;5244102;28;20029;-74
2023/01/14 02:36:17;;;;;;;43.33;10.45;;;;;;;4.26;100.00;101272.91;5244192;28;20048;-74
2023/01/14 02:39:06;;;;;;;44.70;9.98;;;;;;;4.24;100.00;101256.53;5243745;28;20033;-75
2023/01/14 02:44:54;;;;;;;38.90;8.30;;;;;;;4.25;100.00;101253.13;5244940;28;20427;-74
2023/01/14 02:47:26;;;;;;;42.38;8.85;;;;;;;4.27;100.00;101248.88;5244875;28;20025;-74
2023/01/14 02:49:59;;;;;;;;;;;;;;;4.25;100.00;101245.41;5244105;28;20033;-75
2023/01/14 02:52:30;;;;;;;35.20;7.53;;;;;;;4.25;100.00;101236.75;5243035;28;19919;-74
2023/01/14 02:55:22;;;;;;;35.47;7.70;;;;;;;4.34;100.00;101247.28;5243688;28;20037;-75
2023/01/14 02:58:24;;;;;;;41.28;8.50;;;;;;;4.34;100.00;101237.81;5244755;28;20457;-74
2023/01/14 03:01:03;;;;;;;35.13;8.48;;;;;;;4.35;100.00;101233.53;5243537;28;20033;-74
2023/01/14 03:03:50;;;;;;;41.50;9.80;;;;;;;4.30;100.00;101236.03;5244794;28;20214;-75
2023/01/14 03:06:39;;;;;;;36.85;8.20;;;;;;;4.30;100.00;101243.78;5244036;28;20397;-74
2023/01/14 03:09:29;;;;;;;38.47;8.30;;;;;;;4.29;100.00;101234.28;5243047;28;20087;-75
2023/01/14 03:12:43;;;;;;;47.65;8.45;;;;;;;4.27;100.00;101232.53;5243205;28;20029;-75
2023/01/14 03:15:26;;;;;;;34.00;7.65;;;;;;;4.25;100.00;101219.59;5224914;28;20029;-74
2023/01/14 03:18:00;;;;;;;;;;;;;;;4.30;100.00;101211.91;5242974;28;20034;-73
2023/01/14 03:20:36;;;;;;;43.25;10.55;;;;;;;4.28;100.00;101206.75;5242873;28;19913;-73
2023/01/14 03:23:15;;;;;;;42.78;8.73;;;;;;;4.30;100.00;101199.00;5244364;28;20040;-73
2023/01/14 03:25:49;;;;;;;30.30;8.20;;;;;;;4.32;100.00;101194.78;5242431;28;20035;-72
2023/01/14 03:28:26;;;;;;;32.53;6.78;;;;;;;4.37;100.00;101201.75;5242708;28;20029;-72
2023/01/14 03:31:05;;;;;;;29.55;7.13;;;;;;;4.40;100.00;101200.09;5242896;28;20049;-75
2023/01/14 03:33:47;;;;;;;39.28;7.80;;;;;;;4.43;100.00;101194.94;5243602;28;20036;-73
2023/01/14 03:36:20;;;;;;;33.42;7.35;;;;;;;4.51;100.00;101193.41;5242622;28;20037;-73
2023/01/14 03:39:03;;;;;;;39.72;8.27;;;;;;;4.55;100.00;101188.31;5242264;28;20037;-74
2023/01/14 03:44:40;;;;;;;33.30;8.40;;;;;;;4.66;100.00;101195.41;5243562;28;20195;-75
2023/01/14 03:47:12;;;;;;;35.20;7.15;;;;;;;4.63;100.00;101196.19;5241902;28;20029;-73
2023/01/14 03:49:43;;;;;;;33.63;8.00;;;;;;;4.74;100.00;101196.41;5242098;28;20029;-73
2023/01/14 03:52:20;;;;;;;36.67;8.10;;;;;;;4.69;100.00;101185.13;5242301;28;20032;-73
2023/01/14 03:55:13;;;;;;;35.22;7.72;;;;;;;4.77;100.00;101182.69;5243036;28;20039;-72
2023/01/14 03:57:52;;;;;;;42.20;6.43;;;;;;;4.74;100.00;101168.00;5242876;28;20056;-73
2023/01/14 04:00:33;;;;;;;30.10;6.75;;;;;;;4.72;100.00;101167.97;5242997;28;20029;-72
2023/01/14 04:03:09;;;;;;;32.40;6.90;;;;;;;4.74;100.00;101166.25;5242317;28;20120;-73
2023/01/14 04:05:40;;;;;;;25.63;6.22;;;;;;;4.70;100.00;101161.03;5243414;28;20034;-72
2023/01/14 04:08:12;;;;;;;34.77;7.43;;;;;;;4.66;100.00;101149.78;5242227;28;20405;-72
2023/01/14 04:10:43;;;;;;;27.33;6.30;;;;;;;4.67;100.00;101153.22;5242096;28;20029;-72
2023/01/14 04:16:07;;;;;;;26.42;7.50;;;;;;;4.67;100.00;101133.44;5243133;28;20135;-73
2023/01/14 04:18:38;;;;;;;24.70;7.60;;;;;;;4.66;100.00;101129.13;5243210;28;20120;-73
2023/01/14 04:21:09;;;;;;;28.00;7.00;;;;;;;4.68;100.00;101123.97;5241394;28;20069;-73
2023/01/14 04:23:41;;;;;;;34.67;7.93;;;;;;;4.62;100.00;101113.53;5241568;28;20037;-73
2023/01/14 04:26:12;;;;;;;31.60;7.60;;;;;;;4.61;100.00;101110.09;5241954;28;20033;-73
2023/01/14 04:28:44;;;;;;;30.90;6.27;;;;;;;4.62;100.00;101114.44;5242779;28;20079;-73
2023/01/14 04:31:15;;;;;;;32.70;5.93;;;;;;;4.62;100.00;101095.47;5241452;28;20032;-73
2023/01/14 04:33:47;;;;;;;31.90;7.60;;;;;;;4.60;100.00;101095.44;5243547;28;20443;-72
2023/01/14 04:36:18;;;;;;;34.97;7.50;;;;;;;4.53;100.00;101097.06;5225170;28;20075;-74
2023/01/14 04:38:49;;;;;;;40.83;7.97;;;;;;;4.52;100.00;101097.03;5241734;28;20025;-73
2023/01/14 04:44:11;;;;;;;32.00;6.72;;;;;;;4.43;100.00;101086.53;5243101;28;20037;-73
2023/01/14 04:46:42;;;;;;;30.90;7.63;;;;;;;4.40;100.00;101089.94;5240796;28;20025;-73
2023/01/14 04:49:14;;;;;;;29.80;7.27;;;;;;;4.39;100.00;101090.78;5242660;28;20037;-73
2023/01/14 04:51:45;;;;;;;35.10;6.37;;;;;;;4.39;100.00;101080.47;5241137;28;20080;-74
2023/01/14 04:54:17;;;;;;;27.40;5.90;;;;;;;4.43;100.00;101089.13;5225137;28;20040;-73
2023/01/14 04:56:48;;;;;;;33.17;8.20;;;;;;;4.43;100.00;101094.28;5208144;28;20072;-73
2023/01/14 04:59:19;;;;;;;37.00;8.33;;;;;;;4.42;100.00;101079.66;5225051;28;20113;-73
2023/01/14 05:01:51;;;;;;;32.60;6.63;;;;;;;4.41;100.00;101068.44;5241940;28;20038;-74
2023/01/14 05:04:22;;;;;;;30.10;7.77;;;;;;;4.44;100.00;101071.06;5242058;28;20033;-74
2023/01/14 05:06:54;;;;;;;29.73;8.73;;;;;;;4.48;100.00;101072.03;5241838;28;20116;-73
2023/01/14 05:09:26;;;;;;;28.95;8.25;;;;;;;4.53;100.00;101058.31;5240800;28;20030;-73
2023/01/14 05:11:57;;;;;;;24.27;6.83;;;;;;;4.50;100.00;101053.13;5241399;28;20037;-73
2023/01/14 05:14:28;;;;;;;24.67;6.17;;;;;;;4.55;100.00;101053.19;5241480;28;20357;-75
2023/01/14 05:17:00;;;;;;;25.00;5.57;;;;;;;4.56;100.00;101048.06;5223704;28;20089;-74
2023/01/14 05:19:32;;;;;;;26.10;6.50;;;;;;;4.56;100.00;101045.47;5240906;28;20491;-73
2023/01/14 05:22:03;;;;;;;32.53;5.97;;;;;;;4.61;100.00;101042.09;5242239;28;20108;-73
2023/01/14 05:24:35;;;;;;;25.07;6.07;;;;;;;4.64;100.00;101040.44;5241886;28;20143;-73
2023/01/14 05:27:06;;;;;;;31.27;6.27;;;;;;;4.67;100.00;101021.53;5242090;28;20091;-73
2023/01/14 05:29:38;;;;;;;24.73;6.63;;;;;;;4.73;100.00;101009.59;5223971;28;20045;-74
2023/01/14 05:32:12;;;;;;;22.58;5.93;;;;;;;4.77;100.00;101007.06;5240556;28;20470;-73
2023/01/14 05:34:43;;;;;;;24.23;6.78;;;;;;;4.74;100.00;100992.38;5241571;28;20029;-73
2023/01/14 05:37:14;;;;;;;26.87;6.50;;;;;;;4.77;100.00;100983.81;5223962;28;20033;-74
2023/01/14 05:39:46;;;;;;;26.43;6.47;;;;;;;4.75;100.00;100973.47;5240968;28;20025;-73
2023/01/14 05:48:00;;;;;;;29.35;6.22;;;;;;;4.84;100.00;100952.03;5241135;28;20484;-73
2023/01/14 05:50:32;;;;;;;36.80;7.73;;;;;;;4.88;100.00;100951.25;5241253;28;20116;-73
2023/01/14 05:53:04;;;;;;;30.30;5.90;;;;;;;4.92;100.00;100943.53;5240414;28;20021;-73
2023/01/14 05:55:37;;;;;;;22.67;6.55;;;;;;;4.96;100.00;100941.88;5240550;28;20467;-73
2023/01/14 05:58:09;;;;;;;27.00;5.35;;;;;;;4.99;100.00;100928.13;5241603;28;20140;-73
2023/01/14 06:06:28;;;;;;;23.52;5.10;;;;;;;5.11;100.00;100923.97;5245031;28;20065;-73
2023/01/14 06:09:02;;;;;;;25.52;5.50;;;;;;;5.11;100.00;100910.19;5244343;28;20030;-74
2023/01/14 06:11:34;;;;;;;36.40;7.10;;;;;;;5.13;100.00;100911.06;5245381;28;20036;-73
2023/01/14 06:14:05;;;;;;;23.47;5.37;;;;;;;5.17;100.00;100901.63;5245510;28;20123;-73
2023/01/14 06:16:40;;;;;;;27.40;5.73;;;;;;;5.15;100.00;100893.84;5245204;28;20057;-72
2023/01/14 06:19:16;;;;;;;27.50;6.95;;;;;;;5.12;100.00;100888.69;5245294;28;20029;-74
2023/01/14 06:21:49;;;;;;;23.38;5.78;;;;;;;5.10;100.00;100874.84;5245187;28;20033;-73
2023/01/14 06:24:21;;;;;;;20.67;6.20;;;;;;;5.04;100.00;100880.84;5245266;28;20120;-73
2023/01/14 06:26:52;;;;;;;28.63;7.00;;;;;;;4.99;100.00;100867.00;5243903;28;20030;-72
2023/01/14 06:29:24;;;;;;;32.70;5.93;;;;;;;4.98;100.00;100867.84;5245017;28;20029;-73
2023/01/14 06:31:55;;;;;;;22.37;4.83;;;;;;;4.98;100.00;100846.31;5244094;28;20449;-73
2023/01/14 06:34:26;;;;;;;29.13;7.17;;;;;;;4.99;100.00;100851.50;5244715;28;20036;-74
2023/01/14 06:36:58;;;;;;;23.47;8.00;;;;;;;4.99;100.00;100837.69;5244606;28;20044;-73
2023/01/14 06:39:29;;;;;;;26.57;5.80;;;;;;;4.98;100.00;100834.25;5244656;28;20061;-73
2023/01/14 06:42:00;;;;;;;27.77;7.00;;;;;;;4.97;100.00;100826.50;5243805;28;20069;-74
2023/01/14 06:44:32;;;;;;;25.33;7.17;;;;;;;4.96;100.00;100824.75;5244066;28;20349;-76
2023/01/14 06:47:03;;;;;;;25.40;5.27;;;;;;;4.98;100.00;100812.72;5244241;28;20029;-73
2023/01/14 06:49:34;;;;;;;26.27;5.57;;;;;;;5.00;100.00;100816.19;5244978;28;20105;-73
2023/01/14 06:52:06;;;;;;;21.67;6.97;;;;;;;4.98;100.00;100804.97;5243197;28;20034;-73
2023/01/14 06:54:37;;;;;;;20.80;5.00;;;;;;;4.99;100.00;100804.13;5244534;28;20034;-75
2023/01/14 06:57:09;;;;;;;28.17;5.27;;;;;;;5.01;100.00;100795.53;5244626;28;20087;-74
2023/01/14 06:59:41;;;;;;;29.97;5.77;;;;;;;5.01;100.00;100795.53;5243320;28;20056;-73
2023/01/14 07:02:13;;;;;;;28.10;6.68;;;;;;;5.02;100.00;100783.47;5244218;28;20033;-73
2023/01/14 07:04:45;;;;;;;26.40;5.60;;;;;;;5.02;100.00;100781.75;5244396;28;20061;-73
2023/01/14 07:07:17;;;;;;;23.93;5.80;;;;;;;5.00;100.00;100765.38;5243153;28;20072;-73
2023/01/14 07:09:48;;;;;;;26.88;6.20;;;;;;;5.01;100.00;100766.25;5243832;28;20037;-73
2023/01/14 07:12:20;;;;;;;36.40;6.57;;;;;;;5.03;100.00;100765.41;5244269;28;20355;-73
2023/01/14 07:14:51;;;;;;;29.23;5.97;;;;;;;5.01;100.00;100751.63;5243081;28;20033;-73
2023/01/14 07:17:23;;;;;;;25.23;5.40;;;;;;;5.03;100.00;100747.31;5242450;28;20144;-73
2023/01/14 07:19:54;;;;;;;19.57;5.20;;;;;;;5.02;100.00;100716.31;5226354;28;20048;-73
2023/01/14 07:22:26;;;;;;;26.23;6.47;;;;;;;5.00;100.00;100707.69;5242783;28;20026;-73
2023/01/14 07:24:57;;;;;;;19.13;5.27;;;;;;;5.03;100.00;100705.13;5244121;28;20114;-73
2023/01/14 07:27:29;;;;;;;31.20;6.17;;;;;;;5.03;100.00;100705.13;5244314;28;20120;-74
2023/01/14 07:30:03;;;;;;;19.73;5.10;;;;;;;5.05;100.00;100706.00;5242400;28;20038;-73
2023/01/14 07:32:35;;;;;;;25.55;5.88;;;;;;;5.06;100.00;100710.31;5242521;28;20407;-73
2023/01/14 07:35:06;;;;;;;29.23;6.90;;;;;;;5.07;100.00;100694.84;5242517;28;20087;-72
2023/01/14 07:37:38;;;;;;;20.93;4.73;;;;;;;5.13;100.00;100700.91;5244056;28;20072;-72
2023/01/14 07:40:10;;;;;;;24.97;6.17;;;;;;;5.10;100.00;100689.69;5242512;28;20033;-72
2023/01/14 07:42:41;;;;;;;21.25;5.63;;;;;;;5.13;100.00;100681.09;5243965;28;20060;-73
2023/01/14 07:45:13;;;;;;;26.10;6.40;;;;;;;5.11;100.00;100663.00;5242176;28;20033;-73
2023/01/14 07:47:44;;;;;;;21.50;5.03;;;;;;;5.15;100.00;100658.69;5243798;28;20071;-73
2023/01/14 07:50:17;;;;;;;19.50;6.13;;;;;;;5.17;100.00;100638.03;5242336;28;20038;-73
2023/01/14 07:52:56;;;;;;;22.88;5.22;;;;;;;5.20;100.00;100645.81;5224938;28;20030;-72
2023/01/14 07:55:28;;;;;;;16.20;5.20;;;;;;;5.21;100.00;100630.31;5243413;28;20055;-72
2023/01/14 07:57:59;;;;;;;17.37;4.90;;;;;;;5.24;100.00;100621.75;5243323;28;20062;-72
2023/01/14 08:00:31;;;;;;;19.20;4.77;;;;;;;5.29;100.00;100620.03;5243430;28;20116;-72
2023/01/14 08:03:02;;;;;;;17.30;4.67;;;;;;;5.29;100.00;100601.94;5242922;28;20045;-72
2023/01/14 08:05:34;;;;;;;20.10;5.33;;;;;;;5.33;100.00;100598.53;5242964;28;20397;-72
2023/01/14 08:08:05;;;;;;;23.33;5.70;;;;;;;5.32;100.00;100576.13;5243216;28;20044;-72
2023/01/14 08:10:37;;;;;;;19.83;4.90;;;;;;;5.34;100.00;100576.13;5242599;28;20495;-72
2023/01/14 08:13:14;;;;;;;17.50;4.57;;;;;;;5.38;100.00;100581.34;5242749;28;20077;-72
2023/01/14 08:15:56;;;;;;;15.38;4.38;;;;;;;5.41;100.00;100559.78;5243206;28;20051;-72
2023/01/14 08:18:29;;;;;;;22.02;4.80;;;;;;;5.40;100.00;100551.19;5241785;28;20052;-72
2023/01/14 08:21:04;;;;;;;11.88;4.43;;;;;;;5.43;100.00;100553.78;5243281;28;20036;-72
2023/01/14 08:23:36;;;;;;;12.40;4.45;;;;;;;5.44;100.00;100544.28;5241475;28;20109;-72
2023/01/14 08:26:10;;;;;;;18.87;5.63;;;;;;;5.49;100.00;100529.69;5241800;28;20044;-71
2023/01/14 08:28:41;;;;;;;11.50;4.38;;;;;;;5.50;100.00;100530.53;5242511;28;20036;-71
2023/01/14 08:31:16;;;;;;;11.10;3.60;;;;;;;5.54;100.00;100519.34;5241864;28;20029;-72
2023/01/14 08:33:47;;;;;;;12.48;3.28;;;;;;;5.55;100.00;100506.41;5242193;28;20076;-72
2023/01/14 08:36:19;;;;;;;11.10;3.67;;;;;;;5.59;100.00;100495.25;5242095;28;20034;-72
2023/01/14 08:38:52;;;;;;;15.07;4.18;;;;;;;5.60;100.00;100490.91;5242102;28;20430;-72
2023/01/14 08:41:23;;;;;;;15.27;4.45;;;;;;;5.61;100.00;100465.06;5242216;28;20385;-72
2023/01/14 08:43:56;;;;;;;10.27;3.07;;;;;;;5.67;100.00;100472.00;5242233;28;20028;-71
2023/01/14 08:46:27;;;;;;;11.68;3.80;;;;;;;5.69;100.00;100475.44;5241984;28;20095;-71
2023/01/14 08:48:59;;;;;;;9.53;3.07;;;;;;;5.73;100.00;100455.59;5242215;28;20033;-72
2023/01/14 08:51:30;;;;;;;8.03;3.47;;;;;;;5.77;100.00;100459.94;5240355;28;20477;-72
2023/01/14 08:54:02;;;;;;;12.27;3.27;;;;;;;5.75;100.00;100443.56;5240623;28;20025;-72
2023/01/14 08:56:33;;;;;;;9.70;2.57;;;;;;;5.77;100.00;100426.31;5242042;28;20421;-72
2023/01/14 08:59:05;;;;;;;13.00;3.10;;;;;;;5.80;100.00;100426.31;5241964;28;20038;-71
2023/01/14 09:01:36;;;;;;;14.20;3.60;;;;;;;5.86;100.00;100434.09;5240342;28;20051;-73
2023/01/14 09:04:08;;;;;;;11.30;3.50;;;;;;;5.87;100.00;100403.91;5241648;28;20079;-72
2023/01/14 09:18:10;;;;;;;9.07;2.97;;;;;;;5.94;100.00;100375.47;5240111;28;20057;-72
2023/01/14 09:20:42;;;;;;;6.93;3.00;;;;;;;5.99;100.00;100367.72;5241074;28;20037;-72
2023/01/14 09:23:13;;;;;;;10.70;4.28;;;;;;;6.03;100.00;100364.25;5241675;28;20461;-73
2023/01/14 09:25:45;;;;;;;9.33;2.53;;;;;;;6.06;100.00;100348.72;5241587;28;20026;-72
2023/01/14 09:28:16;;;;;;;10.40;2.97;;;;;;;6.07;100.00;100350.47;5241571;28;20037;-73
2023/01/14 09:30:47;;;;;;;15.83;4.23;;;;;;;6.09;100.00;100335.78;5241276;28;20025;-72
2023/01/14 09:33:19;;;;;;;10.20;3.33;;;;;;;6.11;100.00;100326.28;5240214;28;20091;-72
2023/01/14 09:35:50;;;;;;;13.00;2.77;;;;;;;6.13;100.00;100326.28;5223869;28;20032;-72
2023/01/14 09:38:21;;;;;;;11.30;3.10;;;;;;;6.15;100.00;100320.25;5240383;28;20033;-71
2023/01/14 09:40:53;;;;;;;11.97;3.03;;;;;;;6.19;100.00;100316.78;5241424;28;20056;-72
2023/01/14 09:43:29;;;;;;;11.70;3.70;;;;;;;6.22;100.00;100307.31;5241438;28;20106;-72
2023/01/14 09:46:00;;;;;;;12.40;3.75;;;;;;;6.27;100.00;100303.81;5241203;28;20109;-71
2023/01/14 09:48:32;;;;;;;10.97;3.97;;;;;;;6.27;100.00;100292.63;5241718;28;20124;-71
2023/01/14 09:51:25;;;;;;;11.43;3.17;;;;;;;6.32;100.00;100283.97;5239870;28;20064;-72
2023/01/14 09:54:29;;;;;;;;;;;;;;;6.34;100.00;100291.72;5241698;28;20423;-72
2023/01/14 09:57:23;;;;;;;19.02;5.05;;;;;;;6.37;100.00;100271.84;5239170;28;19999;-72
2023/01/14 10:00:03;;;;;;;15.50;3.70;;;;;;;6.41;100.00;100267.56;5241237;28;20033;-72
2023/01/14 10:03:19;;;;;;;16.55;3.30;;;;;;;6.44;100.00;100269.25;5240495;28;20088;-72
2023/01/14 10:06:03;;;;;;;14.57;4.05;;;;;;;6.45;100.00;100251.13;5238715;28;20482;-71
2023/01/14 10:08:49;;;;;;;16.27;3.65;;;;;;;6.52;100.00;100254.53;5237743;28;20095;-72
2023/01/14 10:11:22;;;;;;;15.57;4.85;;;;;;;6.54;100.00;100238.13;5240919;28;20029;-72
2023/01/14 10:14:12;;;;;;;15.40;3.72;;;;;;;6.60;100.00;100231.19;5240881;28;20460;-71
2023/01/14 10:16:50;;;;;;;15.43;4.10;;;;;;;6.65;100.00;100219.06;5241003;28;20057;-71
2023/01/14 10:19:42;;;;;;;16.58;3.40;;;;;;;6.67;100.00;100205.25;5240760;28;20122;-72
2023/01/14 10:22:17;;;;;;;12.93;3.43;;;;;;;6.75;100.00;100190.53;5239798;28;20033;-71
2023/01/14 10:24:48;;;;;;;19.20;3.40;;;;;;;6.78;100.00;100187.06;5240707;28;20026;-72
2023/01/14 10:27:20;;;;;;;13.17;3.70;;;;;;;6.81;100.00;100186.16;5239856;28;20035;-72
2023/01/14 10:29:53;;;;;;;11.43;3.50;;;;;;;6.82;100.00;100167.19;5240988;28;20076;-71
2023/01/14 10:32:25;;;;;;;11.45;3.70;;;;;;;6.90;100.00;100165.38;5241443;28;20025;-72
2023/01/14 10:34:57;;;;;;;10.93;3.67;;;;;;;6.92;100.00;100154.16;5240330;28;20035;-71
2023/01/14 10:37:28;;;;;;;13.30;4.40;;;;;;;6.94;100.00;100151.53;5241129;28;20103;-71
2023/01/14 10:40:01;;;;;;;9.93;2.90;;;;;;;6.94;100.00;100154.13;5240235;28;20041;-72
2023/01/14 10:42:32;;;;;;;10.55;3.00;;;;;;;7.02;100.00;100141.97;5240545;28;20453;-72
2023/01/14 10:45:10;;;;;;;11.80;4.50;;;;;;;7.03;100.00;100135.91;5240798;28;20033;-71
2023/01/14 10:47:43;;;;;;;12.45;3.40;;;;;;;7.04;100.00;100118.63;5241049;28;20037;-72
2023/01/14 10:50:22;;;;;;;12.57;3.72;;;;;;;7.10;100.00;100114.25;5244673;28;20030;-71
2023/01/14 10:52:55;;;;;;;8.82;3.10;;;;;;;7.10;100.00;100090.94;5244465;28;20380;-71
2023/01/14 10:55:31;;;;;;;9.88;2.95;;;;;;;7.17;100.00;100112.47;5244159;28;20443;-72
2023/01/14 10:58:12;;;;;;;12.05;2.85;;;;;;;7.21;100.00;100116.75;5244481;28;20465;-71
2023/01/14 11:00:51;;;;;;;6.63;2.42;;;;;;;7.23;100.00;100083.00;5227940;28;20041;-72
2023/01/14 11:03:27;;;;;;;10.55;2.70;;;;;;;7.24;100.00;100080.41;5244262;28;20120;-72
2023/01/14 11:06:04;;;;;;;7.78;2.35;;;;;;;7.28;100.00;100065.69;5244688;28;20120;-71
2023/01/14 11:09:03;;;;;;;11.10;2.17;;;;;;;7.33;100.00;100061.31;5244294;28;20033;-72
2023/01/14 11:11:40;;;;;;;8.75;2.00;;;;;;;7.34;100.00;100054.38;5244100;28;20144;-71
2023/01/14 11:14:26;;;;;;;3.15;1.90;;;;;;;7.39;100.00;100027.53;5244095;28;20133;-72
2023/01/14 11:16:58;;;;;;;4.20;1.67;;;;;;;7.39;100.00;100047.41;5243823;28;20025;-72
2023/01/14 11:19:29;;;;;;;5.85;1.52;;;;;;;7.41;100.00;100019.75;5242925;28;20030;-72
2023/01/14 11:22:01;;;;;;;6.10;2.00;;;;;;;7.45;100.00;100019.69;5243915;28;20168;-73
2023/01/14 11:24:37;;;;;;;7.07;2.10;;;;;;;7.48;100.00;100018.78;5244328;28;20034;-72
2023/01/14 11:27:22;;;;;;;4.18;1.90;;;;;;;7.45;100.00;100008.44;5244015;28;20029;-72
2023/01/14 11:29:58;;;;;;;4.30;2.00;;;;;;;7.47;100.00;100001.50;5243876;28;20330;-72
2023/01/14 11:32:36;;;;;;;10.00;3.08;;;;;;;7.52;100.00;100002.31;5243867;28;20029;-73
2023/01/14 11:35:23;;;;;;;4.20;1.70;;;;;;;7.57;100.00;99992.72;5243463;28;20448;-74
2023/01/14 11:37:56;;;;;;;6.93;2.50;;;;;;;7.55;100.00;99975.47;5242612;28;20120;-73
2023/01/14 11:43:25;;;;;;;7.90;2.17;;;;;;;7.58;100.00;99983.22;5243890;28;20041;-73
2023/01/14 11:46:10;;;;;;;5.25;1.70;;;;;;;7.62;100.00;99965.00;5244092;28;20038;-73
2023/01/14 11:48:42;;;;;;;7.32;1.73;;;;;;;7.67;100.00;99967.53;5244107;28;20103;-73
2023/01/14 11:51:21;;;;;;;5.33;1.93;;;;;;;7.62;100.00;99969.34;5243367;28;20021;-73
2023/01/14 11:53:53;;;;;;;2.65;1.33;;;;;;;7.63;100.00;99964.13;5243974;28;20459;-74
2023/01/14 11:56:38;;;;;;;3.72;1.83;;;;;;;7.64;100.00;99962.38;5243328;28;20048;-73
2023/01/14 11:59:23;;;;;;;4.00;1.45;;;;;;;7.66;100.00;99955.44;5243039;28;20044;-73
2023/01/14 12:02:01;;;;;;;3.90;1.48;;;;;;;7.67;100.00;99947.63;5243111;28;20037;-73
2023/01/14 12:04:45;;;;;;;4.15;1.60;;;;;;;7.65;100.00;99933.81;5242860;28;20452;-74
2023/01/14 12:07:29;;;;;;;8.07;2.30;;;;;;;7.64;100.00;99926.06;5243037;28;20032;-73
2023/01/14 12:10:13;;;;;;;4.10;2.03;;;;;;;7.67;100.00;99924.28;5243025;28;20033;-74
2023/01/14 12:19:13;;;;;;;8.07;2.47;;;;;;;7.71;100.00;99893.09;5242937;28;20061;-73
2023/01/14 12:21:54;;;;;;;4.50;1.60;;;;;;;7.71;100.00;99883.59;5242475;28;20144;-74
2023/01/14 12:24:45;;;;;;;4.22;1.70;;;;;;;7.73;100.00;99876.66;5243225;28;20040;-73
2023/01/14 12:27:54;;;;;;;4.70;1.65;;;;;;;7.78;100.00;99855.81;5243310;28;20029;-74
2023/01/14 12:30:35;;;;;;;3.17;1.88;;;;;;;7.74;100.00;99849.81;5242520;28;20032;-73
2023/01/14 12:33:09;;;;;;;2.72;1.52;;;;;;;7.76;100.00;99842.88;5242439;28;20033;-72
2023/01/14 12:35:53;;;;;;;3.38;1.80;;;;;;;7.78;100.00;99843.69;5241227;28;20029;-73
2023/01/14 12:47:20;;;;;;;2.90;1.65;;;;;;;7.88;100.00;99795.09;5242265;28;20030;-72
2023/01/14 12:49:52;;;;;;;3.83;1.40;;;;;;;7.91;100.00;99783.81;5241410;28;20033;-72